sensor_id;sensor_type;location;lat;lon;timestamp;P1;durP1;ratioP1;P2;durP2;ratioP2
71042;SDS011;58696;52.134;5.500;2024-02-04T00:02:18;10.07;;;5.60;;
71042;SDS011;58696;52.134;5.500;2024-02-04T00:04:50;10.80;;;4.68;;
71042;SDS011;58696;52.134;5.500;2024-02-04T00:07:20;8.90;;;4.97;;
71042;SDS011;58696;52.134;5.500;2024-02-04T00:09:49;11.38;;;4.45;;
71042;SDS011;58696;52.134;5.500;2024-02-04T00:12:18;7.80;;;4.15;;
71042;SDS011;58696;52.134;5.500;2024-02-04T00:14:47;6.65;;;3.95;;
71042;SDS011;58696;52.134;5.500;2024-02-04T00:17:16;5.63;;;3.30;;
71042;SDS011;58696;52.134;5.500;2024-02-04T00:19:45;6.57;;;3.10;;
71042;SDS011;58696;52.134;5.500;2024-02-04T00:22:12;6.50;;;2.58;;
71042;SDS011;58696;52.134;5.500;2024-02-04T00:24:38;2.20;;;2.00;;
71042;SDS011;58696;52.134;5.500;2024-02-04T00:27:05;5.22;;;2.13;;
71042;SDS011;58696;52.134;5.500;2024-02-04T00:29:34;5.88;;;2.20;;
71042;SDS011;58696;52.134;5.500;2024-02-04T00:32:03;6.90;;;2.80;;
71042;SDS011;58696;52.134;5.500;2024-02-04T00:34:30;7.93;;;2.90;;
71042;SDS011;58696;52.134;5.500;2024-02-04T00:36:59;7.40;;;3.00;;
71042;SDS011;58696;52.134;5.500;2024-02-04T00:39:26;4.32;;;2.58;;
71042;SDS011;58696;52.134;5.500;2024-02-04T00:41:53;6.22;;;2.50;;
71042;SDS011;58696;52.134;5.500;2024-02-04T00:44:22;5.18;;;2.38;;
71042;SDS011;58696;52.134;5.500;2024-02-04T00:46:51;10.77;;;2.85;;
71042;SDS011;58696;52.134;5.500;2024-02-04T00:49:20;7.15;;;2.17;;
71042;SDS011;58696;52.134;5.500;2024-02-04T00:51:47;3.95;;;2.50;;
71042;SDS011;58696;52.134;5.500;2024-02-04T00:54:13;9.13;;;2.80;;
71042;SDS011;58696;52.134;5.500;2024-02-04T00:56:40;2.88;;;2.25;;
71042;SDS011;58696;52.134;5.500;2024-02-04T00:59:07;3.70;;;2.53;;
71042;SDS011;58696;52.134;5.500;2024-02-04T01:01:36;11.35;;;3.50;;
71042;SDS011;58696;52.134;5.500;2024-02-04T01:04:03;7.35;;;4.43;;
71042;SDS011;58696;52.134;5.500;2024-02-04T01:06:32;11.75;;;4.10;;
71042;SDS011;58696;52.134;5.500;2024-02-04T01:09:16;6.70;;;4.93;;
71042;SDS011;58696;52.134;5.500;2024-02-04T01:11:43;12.07;;;5.35;;
71042;SDS011;58696;52.134;5.500;2024-02-04T01:14:10;9.38;;;4.45;;
71042;SDS011;58696;52.134;5.500;2024-02-04T01:16:41;19.70;;;5.57;;
71042;SDS011;58696;52.134;5.500;2024-02-04T01:19:10;10.77;;;6.00;;
71042;SDS011;58696;52.134;5.500;2024-02-04T01:21:37;14.95;;;6.00;;
71042;SDS011;58696;52.134;5.500;2024-02-04T01:24:03;13.77;;;5.05;;
71042;SDS011;58696;52.134;5.500;2024-02-04T01:26:33;12.40;;;5.40;;
71042;SDS011;58696;52.134;5.500;2024-02-04T01:29:02;19.02;;;5.45;;
71042;SDS011;58696;52.134;5.500;2024-02-04T01:31:31;11.60;;;5.15;;
71042;SDS011;58696;52.134;5.500;2024-02-04T01:34:00;20.25;;;5.30;;
71042;SDS011;58696;52.134;5.500;2024-02-04T01:36:29;14.38;;;5.40;;
71042;SDS011;58696;52.134;5.500;2024-02-04T01:38:56;23.10;;;5.68;;
71042;SDS011;58696;52.134;5.500;2024-02-04T01:41:23;13.95;;;5.07;;
71042;SDS011;58696;52.134;5.500;2024-02-04T01:43:53;17.20;;;6.00;;
71042;SDS011;58696;52.134;5.500;2024-02-04T01:46:20;16.65;;;5.50;;
71042;SDS011;58696;52.134;5.500;2024-02-04T01:48:49;11.88;;;5.50;;
71042;SDS011;58696;52.134;5.500;2024-02-04T01:51:17;12.47;;;5.33;;
71042;SDS011;58696;52.134;5.500;2024-02-04T01:53:46;15.02;;;5.50;;
71042;SDS011;58696;52.134;5.500;2024-02-04T01:56:15;14.57;;;5.28;;
71042;SDS011;58696;52.134;5.500;2024-02-04T01:58:42;18.02;;;5.32;;
71042;SDS011;58696;52.134;5.500;2024-02-04T02:01:12;14.75;;;5.50;;
71042;SDS011;58696;52.134;5.500;2024-02-04T02:03:42;11.50;;;4.43;;
71042;SDS011;58696;52.134;5.500;2024-02-04T02:06:08;16.45;;;4.63;;
71042;SDS011;58696;52.134;5.500;2024-02-04T02:08:36;15.38;;;4.47;;
71042;SDS011;58696;52.134;5.500;2024-02-04T02:11:07;20.10;;;4.85;;
71042;SDS011;58696;52.134;5.500;2024-02-04T02:13:42;11.98;;;3.80;;
71042;SDS011;58696;52.134;5.500;2024-02-04T02:16:15;12.57;;;4.35;;
71042;SDS011;58696;52.134;5.500;2024-02-04T02:18:48;12.75;;;3.72;;
71042;SDS011;58696;52.134;5.500;2024-02-04T02:21:23;7.25;;;3.53;;
71042;SDS011;58696;52.134;5.500;2024-02-04T02:26:57;10.40;;;4.05;;
71042;SDS011;58696;52.134;5.500;2024-02-04T02:29:25;12.23;;;4.00;;
71042;SDS011;58696;52.134;5.500;2024-02-04T02:31:53;10.10;;;3.97;;
71042;SDS011;58696;52.134;5.500;2024-02-04T02:34:22;9.55;;;4.43;;
71042;SDS011;58696;52.134;5.500;2024-02-04T02:39:50;11.07;;;4.15;;
71042;SDS011;58696;52.134;5.500;2024-02-04T02:42:22;16.10;;;5.03;;
71042;SDS011;58696;52.134;5.500;2024-02-04T02:44:54;9.10;;;4.68;;
71042;SDS011;58696;52.134;5.500;2024-02-04T02:47:25;14.38;;;4.82;;
71042;SDS011;58696;52.134;5.500;2024-02-04T02:49:54;14.07;;;4.03;;
71042;SDS011;58696;52.134;5.500;2024-02-04T02:52:23;16.90;;;4.70;;
71042;SDS011;58696;52.134;5.500;2024-02-04T02:54:50;11.30;;;4.45;;
71042;SDS011;58696;52.134;5.500;2024-02-04T02:57:19;15.20;;;5.10;;
71042;SDS011;58696;52.134;5.500;2024-02-04T02:59:50;19.23;;;4.45;;
71042;SDS011;58696;52.134;5.500;2024-02-04T03:02:16;17.33;;;4.70;;
71042;SDS011;58696;52.134;5.500;2024-02-04T03:04:46;16.00;;;5.05;;
71042;SDS011;58696;52.134;5.500;2024-02-04T03:07:15;11.52;;;4.45;;
71042;SDS011;58696;52.134;5.500;2024-02-04T03:09:41;9.68;;;4.78;;
71042;SDS011;58696;52.134;5.500;2024-02-04T03:12:08;14.15;;;5.10;;
71042;SDS011;58696;52.134;5.500;2024-02-04T03:14:37;13.10;;;4.78;;
71042;SDS011;58696;52.134;5.500;2024-02-04T03:17:06;17.80;;;5.25;;
71042;SDS011;58696;52.134;5.500;2024-02-04T03:19:35;18.67;;;5.38;;
71042;SDS011;58696;52.134;5.500;2024-02-04T03:22:06;13.35;;;4.90;;
71042;SDS011;58696;52.134;5.500;2024-02-04T03:24:35;11.43;;;5.20;;
71042;SDS011;58696;52.134;5.500;2024-02-04T03:27:02;14.75;;;5.63;;
71042;SDS011;58696;52.134;5.500;2024-02-04T03:29:29;15.43;;;5.22;;
71042;SDS011;58696;52.134;5.500;2024-02-04T03:31:56;15.65;;;5.10;;
71042;SDS011;58696;52.134;5.500;2024-02-04T03:34:25;12.60;;;4.72;;
71042;SDS011;58696;52.134;5.500;2024-02-04T03:36:52;8.68;;;3.72;;
71042;SDS011;58696;52.134;5.500;2024-02-04T03:39:18;10.80;;;4.22;;
71042;SDS011;58696;52.134;5.500;2024-02-04T03:41:50;9.65;;;3.90;;
71042;SDS011;58696;52.134;5.500;2024-02-04T03:44:16;12.55;;;4.03;;
71042;SDS011;58696;52.134;5.500;2024-02-04T03:46:43;9.13;;;3.92;;
71042;SDS011;58696;52.134;5.500;2024-02-04T03:49:09;7.05;;;3.08;;
71042;SDS011;58696;52.134;5.500;2024-02-04T03:51:36;10.25;;;3.25;;
71042;SDS011;58696;52.134;5.500;2024-02-04T03:54:05;17.10;;;3.20;;
71042;SDS011;58696;52.134;5.500;2024-02-04T03:56:32;6.60;;;2.90;;
71042;SDS011;58696;52.134;5.500;2024-02-04T03:58:58;12.25;;;2.70;;
71042;SDS011;58696;52.134;5.500;2024-02-04T04:01:25;11.25;;;2.53;;
71042;SDS011;58696;52.134;5.500;2024-02-04T04:03:52;6.63;;;2.53;;
71042;SDS011;58696;52.134;5.500;2024-02-04T04:06:21;6.90;;;2.08;;
71042;SDS011;58696;52.134;5.500;2024-02-04T04:08:50;8.13;;;2.50;;
71042;SDS011;58696;52.134;5.500;2024-02-04T04:11:16;8.27;;;1.90;;
71042;SDS011;58696;52.134;5.500;2024-02-04T04:13:43;6.68;;;1.60;;
71042;SDS011;58696;52.134;5.500;2024-02-04T04:16:12;7.53;;;1.77;;
71042;SDS011;58696;52.134;5.500;2024-02-04T04:18:39;5.43;;;2.00;;
71042;SDS011;58696;52.134;5.500;2024-02-04T04:21:05;6.03;;;2.15;;
71042;SDS011;58696;52.134;5.500;2024-02-04T04:23:34;4.30;;;2.08;;
71042;SDS011;58696;52.134;5.500;2024-02-04T04:26:06;5.60;;;2.25;;
71042;SDS011;58696;52.134;5.500;2024-02-04T04:28:32;10.90;;;2.45;;
71042;SDS011;58696;52.134;5.500;2024-02-04T04:30:59;5.72;;;1.90;;
71042;SDS011;58696;52.134;5.500;2024-02-04T04:33:26;9.10;;;2.35;;
71042;SDS011;58696;52.134;5.500;2024-02-04T04:35:53;11.20;;;2.17;;
71042;SDS011;58696;52.134;5.500;2024-02-04T04:38:21;8.18;;;2.42;;
71042;SDS011;58696;52.134;5.500;2024-02-04T04:40:50;7.97;;;2.50;;
71042;SDS011;58696;52.134;5.500;2024-02-04T04:43:17;4.85;;;2.42;;
71042;SDS011;58696;52.134;5.500;2024-02-04T04:45:44;9.95;;;2.55;;
71042;SDS011;58696;52.134;5.500;2024-02-04T04:48:10;7.10;;;2.30;;
71042;SDS011;58696;52.134;5.500;2024-02-04T04:50:40;8.75;;;2.63;;
71042;SDS011;58696;52.134;5.500;2024-02-04T04:53:06;8.90;;;2.88;;
71042;SDS011;58696;52.134;5.500;2024-02-04T04:55:38;13.38;;;2.70;;
71042;SDS011;58696;52.134;5.500;2024-02-04T04:58:09;9.25;;;2.95;;
71042;SDS011;58696;52.134;5.500;2024-02-04T05:00:38;11.70;;;2.67;;
71042;SDS011;58696;52.134;5.500;2024-02-04T05:03:07;8.05;;;2.75;;
71042;SDS011;58696;52.134;5.500;2024-02-04T05:05:34;5.75;;;2.72;;
71042;SDS011;58696;52.134;5.500;2024-02-04T05:08:00;8.63;;;2.55;;
71042;SDS011;58696;52.134;5.500;2024-02-04T05:10:30;7.53;;;2.38;;
71042;SDS011;58696;52.134;5.500;2024-02-04T05:12:59;8.13;;;2.60;;
71042;SDS011;58696;52.134;5.500;2024-02-04T05:15:25;10.07;;;3.20;;
71042;SDS011;58696;52.134;5.500;2024-02-04T05:17:56;6.13;;;2.35;;
71042;SDS011;58696;52.134;5.500;2024-02-04T05:20:25;8.43;;;2.38;;
71042;SDS011;58696;52.134;5.500;2024-02-04T05:22:55;9.70;;;2.78;;
71042;SDS011;58696;52.134;5.500;2024-02-04T05:25:23;8.60;;;2.42;;
71042;SDS011;58696;52.134;5.500;2024-02-04T05:27:52;3.65;;;1.88;;
71042;SDS011;58696;52.134;5.500;2024-02-04T05:30:19;9.25;;;2.30;;
71042;SDS011;58696;52.134;5.500;2024-02-04T05:32:48;9.55;;;2.70;;
71042;SDS011;58696;52.134;5.500;2024-02-04T05:35:16;7.35;;;2.28;;
71042;SDS011;58696;52.134;5.500;2024-02-04T05:37:45;8.02;;;2.35;;
71042;SDS011;58696;52.134;5.500;2024-02-04T05:40:14;10.18;;;2.97;;
71042;SDS011;58696;52.134;5.500;2024-02-04T05:42:43;10.98;;;3.13;;
71042;SDS011;58696;52.134;5.500;2024-02-04T05:45:10;7.38;;;3.28;;
71042;SDS011;58696;52.134;5.500;2024-02-04T05:47:37;8.18;;;2.95;;
71042;SDS011;58696;52.134;5.500;2024-02-04T05:50:06;4.97;;;2.67;;
71042;SDS011;58696;52.134;5.500;2024-02-04T05:52:33;8.55;;;3.47;;
71042;SDS011;58696;52.134;5.500;2024-02-04T05:55:02;9.30;;;3.55;;
71042;SDS011;58696;52.134;5.500;2024-02-04T05:57:36;7.93;;;3.00;;
71042;SDS011;58696;52.134;5.500;2024-02-04T06:00:03;10.25;;;3.17;;
71042;SDS011;58696;52.134;5.500;2024-02-04T06:02:30;8.27;;;3.20;;
71042;SDS011;58696;52.134;5.500;2024-02-04T06:04:59;7.55;;;2.83;;
71042;SDS011;58696;52.134;5.500;2024-02-04T06:07:26;7.78;;;2.85;;
71042;SDS011;58696;52.134;5.500;2024-02-04T06:09:53;7.15;;;2.95;;
71042;SDS011;58696;52.134;5.500;2024-02-04T06:12:22;10.77;;;3.30;;
71042;SDS011;58696;52.134;5.500;2024-02-04T06:14:48;6.68;;;3.05;;
71042;SDS011;58696;52.134;5.500;2024-02-04T06:17:15;7.30;;;3.10;;
71042;SDS011;58696;52.134;5.500;2024-02-04T06:19:46;8.80;;;2.90;;
71042;SDS011;58696;52.134;5.500;2024-02-04T06:22:16;8.60;;;3.13;;
71042;SDS011;58696;52.134;5.500;2024-02-04T06:24:45;6.93;;;2.90;;
71042;SDS011;58696;52.134;5.500;2024-02-04T06:27:12;6.70;;;3.10;;
71042;SDS011;58696;52.134;5.500;2024-02-04T06:29:39;7.60;;;3.05;;
71042;SDS011;58696;52.134;5.500;2024-02-04T06:32:05;8.02;;;3.25;;
71042;SDS011;58696;52.134;5.500;2024-02-04T06:34:34;6.55;;;3.13;;
71042;SDS011;58696;52.134;5.500;2024-02-04T06:37:04;5.47;;;3.40;;
71042;SDS011;58696;52.134;5.500;2024-02-04T06:39:30;8.15;;;3.72;;
71042;SDS011;58696;52.134;5.500;2024-02-04T06:41:57;6.95;;;3.22;;
71042;SDS011;58696;52.134;5.500;2024-02-04T06:44:26;7.65;;;3.65;;
71042;SDS011;58696;52.134;5.500;2024-02-04T06:46:52;5.78;;;4.10;;
71042;SDS011;58696;52.134;5.500;2024-02-04T06:49:19;5.88;;;4.10;;
71042;SDS011;58696;52.134;5.500;2024-02-04T06:51:48;7.35;;;4.22;;
71042;SDS011;58696;52.134;5.500;2024-02-04T06:54:15;10.60;;;4.75;;
71042;SDS011;58696;52.134;5.500;2024-02-04T06:56:47;11.52;;;5.40;;
71042;SDS011;58696;52.134;5.500;2024-02-04T06:59:13;10.30;;;4.90;;
71042;SDS011;58696;52.134;5.500;2024-02-04T07:01:40;12.23;;;4.70;;
71042;SDS011;58696;52.134;5.500;2024-02-04T07:04:09;6.07;;;4.05;;
71042;SDS011;58696;52.134;5.500;2024-02-04T07:06:38;10.05;;;4.10;;
71042;SDS011;58696;52.134;5.500;2024-02-04T07:09:04;6.72;;;3.63;;
71042;SDS011;58696;52.134;5.500;2024-02-04T07:11:33;9.02;;;4.22;;
71042;SDS011;58696;52.134;5.500;2024-02-04T07:14:00;7.80;;;4.40;;
71042;SDS011;58696;52.134;5.500;2024-02-04T07:16:29;15.63;;;5.30;;
71042;SDS011;58696;52.134;5.500;2024-02-04T07:18:56;11.65;;;5.57;;
71042;SDS011;58696;52.134;5.500;2024-02-04T07:21:25;13.02;;;5.65;;
71042;SDS011;58696;52.134;5.500;2024-02-04T07:23:54;12.15;;;6.00;;
71042;SDS011;58696;52.134;5.500;2024-02-04T07:26:20;10.45;;;5.03;;
71042;SDS011;58696;52.134;5.500;2024-02-04T07:28:49;6.25;;;4.18;;
71042;SDS011;58696;52.134;5.500;2024-02-04T07:31:16;13.25;;;4.97;;
71042;SDS011;58696;52.134;5.500;2024-02-04T07:33:45;8.73;;;4.50;;
71042;SDS011;58696;52.134;5.500;2024-02-04T07:36:11;10.70;;;4.30;;
71042;SDS011;58696;52.134;5.500;2024-02-04T07:38:40;12.65;;;4.07;;
71042;SDS011;58696;52.134;5.500;2024-02-04T07:41:07;8.35;;;5.18;;
71042;SDS011;58696;52.134;5.500;2024-02-04T07:43:36;4.80;;;3.83;;
71042;SDS011;58696;52.134;5.500;2024-02-04T07:46:04;8.77;;;4.80;;
71042;SDS011;58696;52.134;5.500;2024-02-04T07:48:32;12.13;;;4.45;;
71042;SDS011;58696;52.134;5.500;2024-02-04T07:50:59;14.80;;;4.80;;
71042;SDS011;58696;52.134;5.500;2024-02-04T07:53:28;9.57;;;4.72;;
71042;SDS011;58696;52.134;5.500;2024-02-04T07:55:55;5.25;;;3.95;;
71042;SDS011;58696;52.134;5.500;2024-02-04T07:58:21;7.13;;;3.78;;
71042;SDS011;58696;52.134;5.500;2024-02-04T08:00:54;7.88;;;4.18;;
71042;SDS011;58696;52.134;5.500;2024-02-04T08:03:23;6.05;;;4.28;;
71042;SDS011;58696;52.134;5.500;2024-02-04T08:05:50;11.90;;;3.78;;
71042;SDS011;58696;52.134;5.500;2024-02-04T08:08:17;9.10;;;3.95;;
71042;SDS011;58696;52.134;5.500;2024-02-04T08:10:44;7.13;;;3.05;;
71042;SDS011;58696;52.134;5.500;2024-02-04T08:13:10;4.40;;;2.90;;
71042;SDS011;58696;52.134;5.500;2024-02-04T08:15:39;6.80;;;2.92;;
71042;SDS011;58696;52.134;5.500;2024-02-04T08:18:06;4.97;;;2.58;;
71042;SDS011;58696;52.134;5.500;2024-02-04T08:20:35;8.18;;;2.38;;
71042;SDS011;58696;52.134;5.500;2024-02-04T08:23:02;6.50;;;2.22;;
71042;SDS011;58696;52.134;5.500;2024-02-04T08:25:30;3.87;;;2.00;;
71042;SDS011;58696;52.134;5.500;2024-02-04T08:27:57;5.05;;;2.20;;
71042;SDS011;58696;52.134;5.500;2024-02-04T08:30:24;8.02;;;2.58;;
71042;SDS011;58696;52.134;5.500;2024-02-04T08:32:53;7.28;;;2.63;;
71042;SDS011;58696;52.134;5.500;2024-02-04T08:35:20;6.50;;;2.35;;
71042;SDS011;58696;52.134;5.500;2024-02-04T08:37:47;6.65;;;3.25;;
71042;SDS011;58696;52.134;5.500;2024-02-04T08:40:13;4.65;;;1.95;;
71042;SDS011;58696;52.134;5.500;2024-02-04T08:42:40;6.03;;;2.28;;
71042;SDS011;58696;52.134;5.500;2024-02-04T08:45:07;4.32;;;1.80;;
71042;SDS011;58696;52.134;5.500;2024-02-04T08:47:34;4.00;;;2.00;;
71042;SDS011;58696;52.134;5.500;2024-02-04T08:50:03;5.43;;;2.40;;
71042;SDS011;58696;52.134;5.500;2024-02-04T08:52:32;6.43;;;1.83;;
71042;SDS011;58696;52.134;5.500;2024-02-04T08:55:01;3.08;;;1.55;;
71042;SDS011;58696;52.134;5.500;2024-02-04T08:57:30;2.88;;;1.75;;
71042;SDS011;58696;52.134;5.500;2024-02-04T08:59:57;3.85;;;1.80;;
71042;SDS011;58696;52.134;5.500;2024-02-04T09:02:23;2.67;;;1.65;;
71042;SDS011;58696;52.134;5.500;2024-02-04T09:04:52;6.57;;;2.28;;
71042;SDS011;58696;52.134;5.500;2024-02-04T09:07:22;6.57;;;1.98;;
71042;SDS011;58696;52.134;5.500;2024-02-04T09:09:49;7.15;;;2.60;;
71042;SDS011;58696;52.134;5.500;2024-02-04T09:12:15;7.97;;;2.75;;
71042;SDS011;58696;52.134;5.500;2024-02-04T09:14:44;5.57;;;3.20;;
71042;SDS011;58696;52.134;5.500;2024-02-04T09:17:11;5.60;;;2.45;;
71042;SDS011;58696;52.134;5.500;2024-02-04T09:19:39;7.53;;;2.92;;
71042;SDS011;58696;52.134;5.500;2024-02-04T09:22:08;7.90;;;3.30;;
71042;SDS011;58696;52.134;5.500;2024-02-04T09:24:35;9.07;;;3.20;;
71042;SDS011;58696;52.134;5.500;2024-02-04T09:27:01;7.07;;;2.90;;
71042;SDS011;58696;52.134;5.500;2024-02-04T09:29:30;6.05;;;2.42;;
71042;SDS011;58696;52.134;5.500;2024-02-04T09:31:57;11.48;;;3.72;;
71042;SDS011;58696;52.134;5.500;2024-02-04T09:34:24;5.68;;;2.22;;
71042;SDS011;58696;52.134;5.500;2024-02-04T09:36:50;7.72;;;2.88;;
71042;SDS011;58696;52.134;5.500;2024-02-04T09:39:19;15.38;;;3.55;;
71042;SDS011;58696;52.134;5.500;2024-02-04T09:41:48;5.78;;;2.25;;
71042;SDS011;58696;52.134;5.500;2024-02-04T09:44:15;7.20;;;2.75;;
71042;SDS011;58696;52.134;5.500;2024-02-04T09:46:45;3.80;;;2.28;;
71042;SDS011;58696;52.134;5.500;2024-02-04T09:49:14;6.18;;;2.47;;
71042;SDS011;58696;52.134;5.500;2024-02-04T09:51:44;6.10;;;1.92;;
71042;SDS011;58696;52.134;5.500;2024-02-04T09:54:11;2.85;;;1.67;;
71042;SDS011;58696;52.134;5.500;2024-02-04T09:56:40;8.45;;;2.17;;
71042;SDS011;58696;52.134;5.500;2024-02-04T09:59:08;4.95;;;2.13;;
71042;SDS011;58696;52.134;5.500;2024-02-04T10:01:34;3.97;;;1.55;;
71042;SDS011;58696;52.134;5.500;2024-02-04T10:04:07;5.90;;;1.80;;
71042;SDS011;58696;52.134;5.500;2024-02-04T10:06:33;6.22;;;1.88;;
71042;SDS011;58696;52.134;5.500;2024-02-04T10:09:03;7.95;;;2.05;;
71042;SDS011;58696;52.134;5.500;2024-02-04T10:11:29;2.70;;;1.63;;
71042;SDS011;58696;52.134;5.500;2024-02-04T10:13:58;2.75;;;1.65;;
71042;SDS011;58696;52.134;5.500;2024-02-04T10:16:29;2.70;;;1.52;;
71042;SDS011;58696;52.134;5.500;2024-02-04T10:18:58;3.17;;;1.45;;
71042;SDS011;58696;52.134;5.500;2024-02-04T10:21:27;5.25;;;2.22;;
71042;SDS011;58696;52.134;5.500;2024-02-04T10:23:54;4.50;;;1.42;;
71042;SDS011;58696;52.134;5.500;2024-02-04T10:26:23;3.65;;;1.25;;
71042;SDS011;58696;52.134;5.500;2024-02-04T10:28:57;8.18;;;1.45;;
71042;SDS011;58696;52.134;5.500;2024-02-04T10:31:27;2.85;;;1.20;;
71042;SDS011;58696;52.134;5.500;2024-02-04T10:33:54;2.17;;;1.27;;
71042;SDS011;58696;52.134;5.500;2024-02-04T10:36:24;5.47;;;1.65;;
71042;SDS011;58696;52.134;5.500;2024-02-04T10:38:51;5.55;;;1.17;;
71042;SDS011;58696;52.134;5.500;2024-02-04T10:41:18;4.03;;;1.25;;
71042;SDS011;58696;52.134;5.500;2024-02-04T10:43:49;2.22;;;1.10;;
71042;SDS011;58696;52.134;5.500;2024-02-04T10:46:20;3.00;;;1.05;;
71042;SDS011;58696;52.134;5.500;2024-02-04T10:48:55;2.15;;;0.90;;
71042;SDS011;58696;52.134;5.500;2024-02-04T10:51:25;2.28;;;0.70;;
71042;SDS011;58696;52.134;5.500;2024-02-04T10:53:57;1.73;;;0.70;;
71042;SDS011;58696;52.134;5.500;2024-02-04T10:56:41;9.45;;;1.17;;
71042;SDS011;58696;52.134;5.500;2024-02-04T10:59:10;1.83;;;0.85;;
71042;SDS011;58696;52.134;5.500;2024-02-04T11:01:39;2.33;;;0.70;;
71042;SDS011;58696;52.134;5.500;2024-02-04T11:04:09;3.00;;;0.73;;
71042;SDS011;58696;52.134;5.500;2024-02-04T11:06:38;2.17;;;0.70;;
71042;SDS011;58696;52.134;5.500;2024-02-04T11:09:09;2.47;;;0.93;;
71042;SDS011;58696;52.134;5.500;2024-02-04T11:11:38;3.38;;;0.60;;
71042;SDS011;58696;52.134;5.500;2024-02-04T11:14:11;1.02;;;0.80;;
71042;SDS011;58696;52.134;5.500;2024-02-04T11:20:01;3.88;;;0.70;;
71042;SDS011;58696;52.134;5.500;2024-02-04T11:25:21;4.28;;;1.25;;
71042;SDS011;58696;52.134;5.500;2024-02-04T11:27:53;2.55;;;0.63;;
71042;SDS011;58696;52.134;5.500;2024-02-04T11:30:22;0.75;;;0.65;;
71042;SDS011;58696;52.134;5.500;2024-02-04T11:32:49;1.75;;;1.00;;
71042;SDS011;58696;52.134;5.500;2024-02-04T11:35:19;1.75;;;0.75;;
71042;SDS011;58696;52.134;5.500;2024-02-04T11:37:50;1.10;;;0.40;;
71042;SDS011;58696;52.134;5.500;2024-02-04T11:40:17;0.85;;;0.57;;
71042;SDS011;58696;52.134;5.500;2024-02-04T11:42:45;0.85;;;0.50;;
71042;SDS011;58696;52.134;5.500;2024-02-04T11:45:14;1.73;;;0.65;;
71042;SDS011;58696;52.134;5.500;2024-02-04T11:47:42;1.70;;;0.95;;
71042;SDS011;58696;52.134;5.500;2024-02-04T11:50:09;2.60;;;0.90;;
71042;SDS011;58696;52.134;5.500;2024-02-04T11:52:39;5.45;;;1.20;;
71042;SDS011;58696;52.134;5.500;2024-02-04T11:55:12;1.27;;;0.82;;
71042;SDS011;58696;52.134;5.500;2024-02-04T11:57:43;1.50;;;0.90;;
71042;SDS011;58696;52.134;5.500;2024-02-04T12:00:13;1.40;;;1.08;;
71042;SDS011;58696;52.134;5.500;2024-02-04T12:02:45;3.10;;;1.27;;
71042;SDS011;58696;52.134;5.500;2024-02-04T12:05:11;4.28;;;1.45;;
71042;SDS011;58696;52.134;5.500;2024-02-04T12:07:39;3.65;;;1.38;;
71042;SDS011;58696;52.134;5.500;2024-02-04T12:10:12;4.47;;;1.42;;
71042;SDS011;58696;52.134;5.500;2024-02-04T12:12:40;5.18;;;1.45;;
71042;SDS011;58696;52.134;5.500;2024-02-04T12:15:07;3.47;;;1.15;;
71042;SDS011;58696;52.134;5.500;2024-02-04T12:17:36;6.68;;;1.80;;
71042;SDS011;58696;52.134;5.500;2024-02-04T12:20:03;2.08;;;1.40;;
71042;SDS011;58696;52.134;5.500;2024-02-04T12:22:32;4.93;;;1.80;;
71042;SDS011;58696;52.134;5.500;2024-02-04T12:25:01;9.00;;;1.55;;
71042;SDS011;58696;52.134;5.500;2024-02-04T12:27:29;3.85;;;1.55;;
71042;SDS011;58696;52.134;5.500;2024-02-04T12:29:56;9.35;;;1.70;;
71042;SDS011;58696;52.134;5.500;2024-02-04T12:32:25;4.35;;;1.42;;
71042;SDS011;58696;52.134;5.500;2024-02-04T12:34:52;5.78;;;1.80;;
71042;SDS011;58696;52.134;5.500;2024-02-04T12:37:23;7.28;;;2.10;;
71042;SDS011;58696;52.134;5.500;2024-02-04T12:39:53;6.20;;;1.52;;
71042;SDS011;58696;52.134;5.500;2024-02-04T12:42:25;3.95;;;1.77;;
71042;SDS011;58696;52.134;5.500;2024-02-04T12:44:56;5.15;;;1.58;;
71042;SDS011;58696;52.134;5.500;2024-02-04T12:47:28;3.53;;;1.23;;
71042;SDS011;58696;52.134;5.500;2024-02-04T12:49:57;6.20;;;1.45;;
71042;SDS011;58696;52.134;5.500;2024-02-04T12:52:25;3.05;;;1.45;;
71042;SDS011;58696;52.134;5.500;2024-02-04T12:55:00;6.38;;;1.95;;
71042;SDS011;58696;52.134;5.500;2024-02-04T12:57:29;4.35;;;1.13;;
71042;SDS011;58696;52.134;5.500;2024-02-04T13:00:06;4.40;;;1.10;;
71042;SDS011;58696;52.134;5.500;2024-02-04T13:02:34;4.78;;;1.20;;
71042;SDS011;58696;52.134;5.500;2024-02-04T13:05:05;4.40;;;1.20;;
71042;SDS011;58696;52.134;5.500;2024-02-04T13:07:37;4.78;;;1.15;;
71042;SDS011;58696;52.134;5.500;2024-02-04T13:10:06;7.15;;;1.58;;
71042;SDS011;58696;52.134;5.500;2024-02-04T13:12:33;2.75;;;1.20;;
71042;SDS011;58696;52.134;5.500;2024-02-04T13:15:01;4.68;;;1.13;;
71042;SDS011;58696;52.134;5.500;2024-02-04T13:17:31;4.78;;;1.10;;
71042;SDS011;58696;52.134;5.500;2024-02-04T13:19:57;4.00;;;1.00;;
71042;SDS011;58696;52.134;5.500;2024-02-04T13:22:27;7.00;;;1.70;;
71042;SDS011;58696;52.134;5.500;2024-02-04T13:24:56;2.63;;;1.05;;
71042;SDS011;58696;52.134;5.500;2024-02-04T13:27:24;4.53;;;1.23;;
71042;SDS011;58696;52.134;5.500;2024-02-04T13:29:54;4.00;;;1.27;;
71042;SDS011;58696;52.134;5.500;2024-02-04T13:32:20;6.70;;;1.10;;
71042;SDS011;58696;52.134;5.500;2024-02-04T13:34:47;3.65;;;1.00;;
71042;SDS011;58696;52.134;5.500;2024-02-04T13:37:30;2.80;;;1.02;;
71042;SDS011;58696;52.134;5.500;2024-02-04T13:39:59;9.25;;;1.25;;
71042;SDS011;58696;52.134;5.500;2024-02-04T13:42:26;4.38;;;1.90;;
71042;SDS011;58696;52.134;5.500;2024-02-04T13:44:55;6.25;;;1.63;;
71042;SDS011;58696;52.134;5.500;2024-02-04T13:47:24;4.47;;;1.45;;
71042;SDS011;58696;52.134;5.500;2024-02-04T13:49:51;5.97;;;1.75;;
71042;SDS011;58696;52.134;5.500;2024-02-04T13:52:18;4.18;;;1.00;;
71042;SDS011;58696;52.134;5.500;2024-02-04T13:54:44;6.85;;;1.48;;
71042;SDS011;58696;52.134;5.500;2024-02-04T13:57:14;6.05;;;2.20;;
71042;SDS011;58696;52.134;5.500;2024-02-04T13:59:40;10.68;;;2.33;;
71042;SDS011;58696;52.134;5.500;2024-02-04T14:02:07;4.85;;;1.80;;
71042;SDS011;58696;52.134;5.500;2024-02-04T14:04:37;5.93;;;1.33;;
71042;SDS011;58696;52.134;5.500;2024-02-04T14:07:04;7.93;;;1.73;;
71042;SDS011;58696;52.134;5.500;2024-02-04T14:09:30;2.70;;;1.35;;
71042;SDS011;58696;52.134;5.500;2024-02-04T14:11:57;4.45;;;1.83;;
71042;SDS011;58696;52.134;5.500;2024-02-04T14:14:23;6.05;;;2.10;;
71042;SDS011;58696;52.134;5.500;2024-02-04T14:16:50;4.28;;;1.92;;
71042;SDS011;58696;52.134;5.500;2024-02-04T14:19:21;5.18;;;2.20;;
71042;SDS011;58696;52.134;5.500;2024-02-04T14:21:48;11.27;;;2.38;;
71042;SDS011;58696;52.134;5.500;2024-02-04T14:24:15;10.90;;;2.20;;
71042;SDS011;58696;52.134;5.500;2024-02-04T14:26:44;6.65;;;2.10;;
71042;SDS011;58696;52.134;5.500;2024-02-04T14:29:11;13.15;;;2.97;;
71042;SDS011;58696;52.134;5.500;2024-02-04T14:31:37;6.50;;;2.45;;
71042;SDS011;58696;52.134;5.500;2024-02-04T14:34:04;8.50;;;2.33;;
71042;SDS011;58696;52.134;5.500;2024-02-04T14:36:33;10.02;;;2.10;;
71042;SDS011;58696;52.134;5.500;2024-02-04T14:39:02;7.60;;;2.42;;
71042;SDS011;58696;52.134;5.500;2024-02-04T14:41:34;8.57;;;2.00;;
71042;SDS011;58696;52.134;5.500;2024-02-04T14:44:02;9.23;;;2.22;;
71042;SDS011;58696;52.134;5.500;2024-02-04T14:46:31;5.35;;;2.03;;
71042;SDS011;58696;52.134;5.500;2024-02-04T14:48:58;9.35;;;1.98;;
71042;SDS011;58696;52.134;5.500;2024-02-04T14:51:27;7.22;;;2.47;;
71042;SDS011;58696;52.134;5.500;2024-02-04T14:53:53;4.00;;;1.70;;
71042;SDS011;58696;52.134;5.500;2024-02-04T14:56:20;7.57;;;2.08;;
71042;SDS011;58696;52.134;5.500;2024-02-04T14:58:49;6.60;;;2.25;;
71042;SDS011;58696;52.134;5.500;2024-02-04T15:01:18;9.73;;;2.35;;
71042;SDS011;58696;52.134;5.500;2024-02-04T15:03:47;10.18;;;2.50;;